sensor_id;sensor_type;location;lat;lon;timestamp;pressure;altitude;pressure_sealevel;temperature;humidity
11198;BME280;5655;48.744;9.162;2022-11-04T00:01:30;95242.00;;;12.57;100.00
11198;BME280;5655;48.744;9.162;2022-11-04T00:03:56;95238.41;;;12.37;100.00
11198;BME280;5655;48.744;9.162;2022-11-04T00:06:21;95240.38;;;12.33;100.00
11198;BME280;5655;48.744;9.162;2022-11-04T00:08:51;95233.00;;;12.06;100.00
11198;BME280;5655;48.744;9.162;2022-11-04T00:11:17;95234.13;;;12.09;100.00
11198;BME280;5655;48.744;9.162;2022-11-04T00:14:02;95221.75;;;12.18;100.00
11198;BME280;5655;48.744;9.162;2022-11-04T00:16:27;95221.03;;;12.14;100.00
11198;BME280;5655;48.744;9.162;2022-11-04T00:19:11;95221.00;;;12.18;100.00
11198;BME280;5655;48.744;9.162;2022-11-04T00:21:36;95225.25;;;12.15;100.00
11198;BME280;5655;48.744;9.162;2022-11-04T00:24:20;95221.13;;;12.07;100.00
11198;BME280;5655;48.744;9.162;2022-11-04T00:27:04;95225.38;;;12.01;100.00
11198;BME280;5655;48.744;9.162;2022-11-04T00:29:48;95223.72;;;11.77;100.00
11198;BME280;5655;48.744;9.162;2022-11-04T00:32:13;95227.25;;;12.04;100.00
11198;BME280;5655;48.744;9.162;2022-11-04T00:34:57;95223.13;;;11.96;100.00
11198;BME280;5655;48.744;9.162;2022-11-04T00:37:22;95221.97;;;11.97;100.00
11198;BME280;5655;48.744;9.162;2022-11-04T00:39:47;95230.16;;;11.83;100.00
11198;BME280;5655;48.744;9.162;2022-11-04T00:42:13;95223.66;;;11.84;100.00
11198;BME280;5655;48.744;9.162;2022-11-04T00:44:38;95219.81;;;11.85;100.00
11198;BME280;5655;48.744;9.162;2022-11-04T00:47:03;95220.16;;;11.87;100.00
11198;BME280;5655;48.744;9.162;2022-11-04T00:49:29;95228.13;;;11.98;100.00
11198;BME280;5655;48.744;9.162;2022-11-04T00:51:55;95236.50;;;12.00;100.00
11198;BME280;5655;48.744;9.162;2022-11-04T00:54:20;95230.16;;;11.83;100.00
11198;BME280;5655;48.744;9.162;2022-11-04T00:56:45;95232.75;;;11.94;100.00
11198;BME280;5655;48.744;9.162;2022-11-04T00:59:12;95234.53;;;12.04;100.00
11198;BME280;5655;48.744;9.162;2022-11-04T01:01:38;95237.44;;;11.86;100.00
11198;BME280;5655;48.744;9.162;2022-11-04T01:04:03;95239.00;;;11.80;100.00
11198;BME280;5655;48.744;9.162;2022-11-04T01:06:29;95233.50;;;11.94;100.00
11198;BME280;5655;48.744;9.162;2022-11-04T01:08:59;95230.56;;;12.19;100.00
11198;BME280;5655;48.744;9.162;2022-11-04T01:11:26;95231.56;;;11.98;100.00
11198;BME280;5655;48.744;9.162;2022-11-04T01:13:54;95239.22;;;11.96;100.00
11198;BME280;5655;48.744;9.162;2022-11-04T01:16:20;95245.22;;;11.66;100.00
11198;BME280;5655;48.744;9.162;2022-11-04T01:18:46;95228.94;;;11.91;100.00
11198;BME280;5655;48.744;9.162;2022-11-04T01:21:13;95249.34;;;11.78;100.00
11198;BME280;5655;48.744;9.162;2022-11-04T01:23:39;95256.66;;;11.74;100.00
11198;BME280;5655;48.744;9.162;2022-11-04T01:26:06;95254.66;;;11.85;100.00
11198;BME280;5655;48.744;9.162;2022-11-04T01:28:32;95252.78;;;11.82;100.00
11198;BME280;5655;48.744;9.162;2022-11-04T01:30:58;95248.16;;;11.86;100.00
11198;BME280;5655;48.744;9.162;2022-11-04T01:33:23;95253.22;;;11.70;100.00
11198;BME280;5655;48.744;9.162;2022-11-04T01:35:51;95260.75;;;11.89;100.00
11198;BME280;5655;48.744;9.162;2022-11-04T01:38:16;95261.09;;;11.95;100.00
11198;BME280;5655;48.744;9.162;2022-11-04T01:40:42;95260.25;;;12.01;100.00
11198;BME280;5655;48.744;9.162;2022-11-04T01:43:16;95258.44;;;12.28;100.00
11198;BME280;5655;48.744;9.162;2022-11-04T01:45:48;95256.34;;;12.09;100.00
11198;BME280;5655;48.744;9.162;2022-11-04T01:48:24;95256.19;;;12.23;100.00
11198;BME280;5655;48.744;9.162;2022-11-04T01:50:52;95261.69;;;12.09;100.00
11198;BME280;5655;48.744;9.162;2022-11-04T01:53:40;95253.94;;;12.18;100.00
11198;BME280;5655;48.744;9.162;2022-11-04T01:56:10;95239.53;;;12.05;100.00
11198;BME280;5655;48.744;9.162;2022-11-04T01:58:40;95239.59;;;11.98;100.00
11198;BME280;5655;48.744;9.162;2022-11-04T02:01:09;95248.69;;;11.63;100.00
11198;BME280;5655;48.744;9.162;2022-11-04T02:03:39;95248.78;;;11.97;100.00
11198;BME280;5655;48.744;9.162;2022-11-04T02:06:08;95231.38;;;11.75;100.00
11198;BME280;5655;48.744;9.162;2022-11-04T02:08:34;95224.75;;;11.90;100.00
11198;BME280;5655;48.744;9.162;2022-11-04T02:11:01;95220.75;;;11.64;100.00
11198;BME280;5655;48.744;9.162;2022-11-04T02:13:29;95231.34;;;11.82;100.00
11198;BME280;5655;48.744;9.162;2022-11-04T02:24:13;95236.63;;;11.89;100.00
11198;BME280;5655;48.744;9.162;2022-11-04T02:27:18;95238.19;;;11.83;100.00
11198;BME280;5655;48.744;9.162;2022-11-04T02:35:03;95224.28;;;11.95;100.00
11198;BME280;5655;48.744;9.162;2022-11-04T02:40:44;95225.00;;;12.03;100.00
11198;BME280;5655;48.744;9.162;2022-11-04T02:45:46;95213.00;;;11.77;100.00
11198;BME280;5655;48.744;9.162;2022-11-04T02:48:19;95214.59;;;11.67;100.00
11198;BME280;5655;48.744;9.162;2022-11-04T02:51:12;95229.09;;;11.70;100.00
11198;BME280;5655;48.744;9.162;2022-11-04T02:53:41;95227.00;;;11.51;100.00
11198;BME280;5655;48.744;9.162;2022-11-04T02:56:10;95216.13;;;11.68;100.00
11198;BME280;5655;48.744;9.162;2022-11-04T02:58:40;95221.50;;;11.65;100.00
11198;BME280;5655;48.744;9.162;2022-11-04T03:01:10;95227.59;;;11.69;100.00
11198;BME280;5655;48.744;9.162;2022-11-04T03:03:41;95230.72;;;11.64;100.00
11198;BME280;5655;48.744;9.162;2022-11-04T03:06:12;95217.63;;;11.73;100.00
11198;BME280;5655;48.744;9.162;2022-11-04T03:08:47;95217.59;;;11.76;100.00
11198;BME280;5655;48.744;9.162;2022-11-04T03:11:18;95210.28;;;11.80;100.00
11198;BME280;5655;48.744;9.162;2022-11-04T03:14:09;95215.59;;;12.21;100.00
11198;BME280;5655;48.744;9.162;2022-11-04T03:16:41;95212.19;;;11.80;100.00
11198;BME280;5655;48.744;9.162;2022-11-04T03:21:38;95243.31;;;12.11;100.00
11198;BME280;5655;48.744;9.162;2022-11-04T03:24:06;95247.06;;;12.17;100.00
11198;BME280;5655;48.744;9.162;2022-11-04T03:26:40;95235.59;;;12.13;100.00
11198;BME280;5655;48.744;9.162;2022-11-04T03:29:25;95244.28;;;11.87;100.00
11198;BME280;5655;48.744;9.162;2022-11-04T03:31:55;95247.72;;;11.39;100.00
11198;BME280;5655;48.744;9.162;2022-11-04T03:34:25;95250.53;;;11.25;100.00
11198;BME280;5655;48.744;9.162;2022-11-04T03:36:50;95250.63;;;11.63;100.00
11198;BME280;5655;48.744;9.162;2022-11-04T03:39:16;95250.63;;;11.63;100.00
11198;BME280;5655;48.744;9.162;2022-11-04T03:41:48;95254.72;;;11.81;100.00
11198;BME280;5655;48.744;9.162;2022-11-04T03:44:15;95265.75;;;11.87;100.00
11198;BME280;5655;48.744;9.162;2022-11-04T03:46:40;95269.28;;;11.77;100.00
11198;BME280;5655;48.744;9.162;2022-11-04T03:49:07;95280.13;;;12.04;100.00
11198;BME280;5655;48.744;9.162;2022-11-04T03:51:33;95281.81;;;11.87;100.00
11198;BME280;5655;48.744;9.162;2022-11-04T03:53:59;95283.69;;;11.94;100.00
11198;BME280;5655;48.744;9.162;2022-11-04T03:59:31;95295.31;;;11.80;100.00
11198;BME280;5655;48.744;9.162;2022-11-04T04:02:12;95286.59;;;11.62;100.00
11198;BME280;5655;48.744;9.162;2022-11-04T04:04:57;95282.00;;;11.62;100.00
11198;BME280;5655;48.744;9.162;2022-11-04T04:07:30;95274.28;;;11.71;100.00
11198;BME280;5655;48.744;9.162;2022-11-04T04:10:09;95280.13;;;11.59;100.00
11198;BME280;5655;48.744;9.162;2022-11-04T04:13:00;95287.19;;;11.87;100.00
11198;BME280;5655;48.744;9.162;2022-11-04T04:15:30;95289.09;;;11.38;100.00
11198;BME280;5655;48.744;9.162;2022-11-04T04:18:05;95272.16;;;11.49;100.00
11198;BME280;5655;48.744;9.162;2022-11-04T04:20:35;95268.31;;;11.53;100.00
11198;BME280;5655;48.744;9.162;2022-11-04T04:23:05;95266.28;;;11.68;100.00
11198;BME280;5655;48.744;9.162;2022-11-04T04:25:53;95245.94;;;11.70;100.00
11198;BME280;5655;48.744;9.162;2022-11-04T04:28:39;95268.56;;;11.66;100.00
11198;BME280;5655;48.744;9.162;2022-11-04T04:31:08;95276.59;;;11.73;100.00
11198;BME280;5655;48.744;9.162;2022-11-04T04:33:34;95287.41;;;11.59;100.00
11198;BME280;5655;48.744;9.162;2022-11-04T04:36:00;95298.28;;;11.37;100.00
11198;BME280;5655;48.744;9.162;2022-11-04T04:38:28;95296.91;;;11.12;100.00
11198;BME280;5655;48.744;9.162;2022-11-04T04:41:19;95298.00;;;11.21;100.00
11198;BME280;5655;48.744;9.162;2022-11-04T04:44:14;95295.63;;;11.30;100.00
11198;BME280;5655;48.744;9.162;2022-11-04T04:46:59;95294.66;;;11.03;100.00
11198;BME280;5655;48.744;9.162;2022-11-04T04:49:26;95299.97;;;11.10;100.00
11198;BME280;5655;48.744;9.162;2022-11-04T04:52:00;95281.69;;;10.98;100.00
11198;BME280;5655;48.744;9.162;2022-11-04T04:54:26;95261.06;;;10.95;100.00
11198;BME280;5655;48.744;9.162;2022-11-04T04:56:51;95249.59;;;10.91;100.00
11198;BME280;5655;48.744;9.162;2022-11-04T04:59:16;95248.78;;;10.98;100.00
11198;BME280;5655;48.744;9.162;2022-11-04T05:01:42;95240.16;;;10.72;100.00
11198;BME280;5655;48.744;9.162;2022-11-04T05:04:07;95218.56;;;11.04;100.00
11198;BME280;5655;48.744;9.162;2022-11-04T05:06:32;95203.78;;;10.75;100.00
11198;BME280;5655;48.744;9.162;2022-11-04T05:08:57;95192.34;;;10.78;100.00
11198;BME280;5655;48.744;9.162;2022-11-04T05:11:23;95194.63;;;10.76;100.00
11198;BME280;5655;48.744;9.162;2022-11-04T05:13:48;95196.50;;;10.79;100.00
11198;BME280;5655;48.744;9.162;2022-11-04T05:16:13;95190.16;;;11.17;100.00
11198;BME280;5655;48.744;9.162;2022-11-04T05:18:39;95189.41;;;11.10;100.00
11198;BME280;5655;48.744;9.162;2022-11-04T05:21:06;95183.72;;;11.08;100.00
11198;BME280;5655;48.744;9.162;2022-11-04T05:23:33;95189.97;;;10.83;100.00
11198;BME280;5655;48.744;9.162;2022-11-04T05:25:58;95202.59;;;10.83;100.00
11198;BME280;5655;48.744;9.162;2022-11-04T05:28:24;95217.06;;;10.96;100.00
11198;BME280;5655;48.744;9.162;2022-11-04T05:30:49;95226.34;;;10.81;100.00
11198;BME280;5655;48.744;9.162;2022-11-04T05:33:14;95222.88;;;10.80;100.00
11198;BME280;5655;48.744;9.162;2022-11-04T05:35:40;95227.34;;;11.01;100.00
11198;BME280;5655;48.744;9.162;2022-11-04T05:38:05;95227.47;;;10.80;100.00
11198;BME280;5655;48.744;9.162;2022-11-04T05:40:30;95230.50;;;10.85;100.00
11198;BME280;5655;48.744;9.162;2022-11-04T05:42:59;95238.06;;;11.01;100.00
11198;BME280;5655;48.744;9.162;2022-11-04T05:45:26;95234.50;;;10.56;100.00
11198;BME280;5655;48.744;9.162;2022-11-04T05:47:57;95246.28;;;10.66;100.00
11198;BME280;5655;48.744;9.162;2022-11-04T05:50:22;95245.88;;;10.71;100.00
11198;BME280;5655;48.744;9.162;2022-11-04T05:52:48;95245.41;;;10.90;100.00
11198;BME280;5655;48.744;9.162;2022-11-04T05:55:13;95240.16;;;10.69;100.00
11198;BME280;5655;48.744;9.162;2022-11-04T05:57:38;95231.81;;;10.56;100.00
11198;BME280;5655;48.744;9.162;2022-11-04T06:00:04;95219.06;;;10.81;100.00
11198;BME280;5655;48.744;9.162;2022-11-04T06:02:30;95214.47;;;10.82;100.00
11198;BME280;5655;48.744;9.162;2022-11-04T06:04:55;95216.75;;;10.87;100.00
11198;BME280;5655;48.744;9.162;2022-11-04T06:07:20;95205.03;;;10.60;100.00
11198;BME280;5655;48.744;9.162;2022-11-04T06:09:45;95204.31;;;10.56;100.00
11198;BME280;5655;48.744;9.162;2022-11-04T06:12:14;95207.94;;;10.90;100.00
11198;BME280;5655;48.744;9.162;2022-11-04T06:14:40;95213.34;;;10.79;100.00
11198;BME280;5655;48.744;9.162;2022-11-04T06:17:06;95222.19;;;10.66;100.00
11198;BME280;5655;48.744;9.162;2022-11-04T06:19:31;95211.66;;;10.37;100.00
11198;BME280;5655;48.744;9.162;2022-11-04T06:21:57;95230.69;;;10.50;100.00
11198;BME280;5655;48.744;9.162;2022-11-04T06:24:22;95232.25;;;10.44;100.00
11198;BME280;5655;48.744;9.162;2022-11-04T06:26:48;95242.94;;;10.40;100.00
11198;BME280;5655;48.744;9.162;2022-11-04T06:29:13;95261.31;;;10.38;100.00
11198;BME280;5655;48.744;9.162;2022-11-04T06:31:38;95261.75;;;10.19;100.00
11198;BME280;5655;48.744;9.162;2022-11-04T06:34:04;95255.66;;;10.15;100.00
11198;BME280;5655;48.744;9.162;2022-11-04T06:36:29;95252.97;;;10.15;100.00
11198;BME280;5655;48.744;9.162;2022-11-04T06:38:55;95263.66;;;10.15;100.00
11198;BME280;5655;48.744;9.162;2022-11-04T06:41:20;95268.22;;;10.18;100.00
11198;BME280;5655;48.744;9.162;2022-11-04T06:43:45;95270.53;;;10.13;100.00
11198;BME280;5655;48.744;9.162;2022-11-04T06:46:24;95265.09;;;10.52;100.00
11198;BME280;5655;48.744;9.162;2022-11-04T06:48:50;95268.63;;;10.13;100.00
11198;BME280;5655;48.744;9.162;2022-11-04T06:51:15;95262.91;;;9.97;100.00
11198;BME280;5655;48.744;9.162;2022-11-04T06:53:41;95272.84;;;10.00;100.00
11198;BME280;5655;48.744;9.162;2022-11-04T06:56:07;95276.66;;;9.99;100.00
11198;BME280;5655;48.744;9.162;2022-11-04T06:58:33;95267.88;;;9.98;100.00
11198;BME280;5655;48.744;9.162;2022-11-04T07:00:58;95263.31;;;9.99;100.00
11198;BME280;5655;48.744;9.162;2022-11-04T07:03:24;95264.47;;;9.91;100.00
11198;BME280;5655;48.744;9.162;2022-11-04T07:05:49;95257.97;;;9.88;100.00
11198;BME280;5655;48.744;9.162;2022-11-04T07:08:14;95268.25;;;10.04;100.00
11198;BME280;5655;48.744;9.162;2022-11-04T07:10:40;95270.56;;;10.16;100.00
11198;BME280;5655;48.744;9.162;2022-11-04T07:13:06;95263.66;;;10.22;100.00
11198;BME280;5655;48.744;9.162;2022-11-04T07:15:31;95262.13;;;10.21;100.00
11198;BME280;5655;48.744;9.162;2022-11-04T07:17:58;95253.97;;;10.53;100.00
11198;BME280;5655;48.744;9.162;2022-11-04T07:20:23;95238.69;;;10.61;100.00
11198;BME280;5655;48.744;9.162;2022-11-04T07:22:48;95240.00;;;10.17;100.00
11198;BME280;5655;48.744;9.162;2022-11-04T07:25:13;95234.66;;;10.17;100.00
11198;BME280;5655;48.744;9.162;2022-11-04T07:27:39;95231.97;;;10.07;100.00
11198;BME280;5655;48.744;9.162;2022-11-04T07:30:05;95240.34;;;10.23;100.00
11198;BME280;5655;48.744;9.162;2022-11-04T07:32:31;95243.78;;;10.23;100.00
11198;BME280;5655;48.744;9.162;2022-11-04T07:34:56;95247.63;;;10.08;100.00
11198;BME280;5655;48.744;9.162;2022-11-04T07:37:22;95242.66;;;10.03;100.00
11198;BME280;5655;48.744;9.162;2022-11-04T07:39:47;95245.25;;;10.42;100.00
11198;BME280;5655;48.744;9.162;2022-11-04T07:42:12;95236.13;;;10.29;100.00
11198;BME280;5655;48.744;9.162;2022-11-04T07:44:38;95238.38;;;10.37;100.00
11198;BME280;5655;48.744;9.162;2022-11-04T07:47:03;95245.19;;;10.56;100.00
11198;BME280;5655;48.744;9.162;2022-11-04T07:49:28;95235.19;;;10.67;100.00
11198;BME280;5655;48.744;9.162;2022-11-04T07:51:54;95235.25;;;10.60;100.00
11198;BME280;5655;48.744;9.162;2022-11-04T07:54:19;95235.94;;;10.71;100.00
11198;BME280;5655;48.744;9.162;2022-11-04T07:56:44;95218.13;;;10.43;100.00
11198;BME280;5655;48.744;9.162;2022-11-04T07:59:10;95214.16;;;10.66;100.00
11198;BME280;5655;48.744;9.162;2022-11-04T08:01:35;95216.81;;;10.76;100.00
11198;BME280;5655;48.744;9.162;2022-11-04T08:04:01;95219.84;;;10.78;100.00
11198;BME280;5655;48.744;9.162;2022-11-04T08:06:26;95206.03;;;10.83;100.00
11198;BME280;5655;48.744;9.162;2022-11-04T08:08:52;95207.94;;;10.83;100.00
11198;BME280;5655;48.744;9.162;2022-11-04T08:11:22;95214.50;;;10.75;100.00
11198;BME280;5655;48.744;9.162;2022-11-04T08:13:49;95205.31;;;10.79;100.00
11198;BME280;5655;48.744;9.162;2022-11-04T08:16:17;95211.34;;;10.94;100.00
11198;BME280;5655;48.744;9.162;2022-11-04T08:18:47;95202.16;;;10.95;100.00
11198;BME280;5655;48.744;9.162;2022-11-04T08:21:13;95216.88;;;11.24;100.00
11198;BME280;5655;48.744;9.162;2022-11-04T08:23:38;95221.47;;;11.24;100.00
11198;BME280;5655;48.744;9.162;2022-11-04T08:26:09;95224.72;;;11.46;100.00
11198;BME280;5655;48.744;9.162;2022-11-04T08:28:35;95220.19;;;11.43;100.00
11198;BME280;5655;48.744;9.162;2022-11-04T08:31:06;95217.84;;;11.45;100.00
11198;BME280;5655;48.744;9.162;2022-11-04T08:33:32;95221.75;;;11.36;100.00
11198;BME280;5655;48.744;9.162;2022-11-04T08:36:02;95220.47;;;11.04;100.00
11198;BME280;5655;48.744;9.162;2022-11-04T08:38:28;95237.31;;;11.49;100.00
11198;BME280;5655;48.744;9.162;2022-11-04T08:40:58;95238.25;;;11.79;100.00
11198;BME280;5655;48.744;9.162;2022-11-04T08:43:23;95242.69;;;11.49;100.00
11198;BME280;5655;48.744;9.162;2022-11-04T08:45:50;95243.56;;;11.38;100.00
11198;BME280;5655;48.744;9.162;2022-11-04T08:48:15;95249.16;;;11.55;100.00
11198;BME280;5655;48.744;9.162;2022-11-04T08:50:41;95245.94;;;11.70;100.00
11198;BME280;5655;48.744;9.162;2022-11-04T08:53:07;95236.88;;;11.57;100.00
11198;BME280;5655;48.744;9.162;2022-11-04T08:55:32;95241.47;;;11.57;100.00
11198;BME280;5655;48.744;9.162;2022-11-04T08:57:59;95239.78;;;11.80;100.00
11198;BME280;5655;48.744;9.162;2022-11-04T09:00:25;95243.00;;;11.58;100.00
11198;BME280;5655;48.744;9.162;2022-11-04T09:02:51;95254.41;;;11.69;100.00
11198;BME280;5655;48.744;9.162;2022-11-04T09:05:16;95248.91;;;11.35;100.00
11198;BME280;5655;48.744;9.162;2022-11-04T09:07:42;95255.16;;;11.73;100.00
11198;BME280;5655;48.744;9.162;2022-11-04T09:10:08;95258.03;;;11.93;100.00
11198;BME280;5655;48.744;9.162;2022-11-04T09:12:34;95257.41;;;11.78;100.00
11198;BME280;5655;48.744;9.162;2022-11-04T09:15:00;95261.09;;;11.91;100.00
11198;BME280;5655;48.744;9.162;2022-11-04T09:17:25;95272.00;;;11.70;100.00
11198;BME280;5655;48.744;9.162;2022-11-04T09:19:50;95276.81;;;11.93;100.00
11198;BME280;5655;48.744;9.162;2022-11-04T09:22:16;95279.53;;;11.89;100.00
11198;BME280;5655;48.744;9.162;2022-11-04T09:24:42;95283.19;;;12.06;100.00
11198;BME280;5655;48.744;9.162;2022-11-04T09:27:07;95285.63;;;12.31;100.00
11198;BME280;5655;48.744;9.162;2022-11-04T09:29:32;95278.38;;;12.27;100.00
11198;BME280;5655;48.744;9.162;2022-11-04T09:31:59;95280.72;;;12.22;100.00
11198;BME280;5655;48.744;9.162;2022-11-04T09:34:24;95276.63;;;12.10;100.00
11198;BME280;5655;48.744;9.162;2022-11-04T09:36:53;95273.00;;;11.87;100.00
11198;BME280;5655;48.744;9.162;2022-11-04T09:39:19;95270.22;;;12.01;100.00
11198;BME280;5655;48.744;9.162;2022-11-04T09:42:02;95270.34;;;11.87;100.00
11198;BME280;5655;48.744;9.162;2022-11-04T09:44:48;95272.63;;;12.25;100.00
11198;BME280;5655;48.744;9.162;2022-11-04T09:47:16;95278.50;;;12.13;100.00
11198;BME280;5655;48.744;9.162;2022-11-04T09:49:43;95269.84;;;12.36;100.00
11198;BME280;5655;48.744;9.162;2022-11-04T09:52:46;95271.97;;;12.82;100.00
11198;BME280;5655;48.744;9.162;2022-11-04T09:55:28;95271.72;;;12.73;100.00
11198;BME280;5655;48.744;9.162;2022-11-04T09:57:56;95261.94;;;12.56;100.00
11198;BME280;5655;48.744;9.162;2022-11-04T10:00:23;95261.69;;;12.77;100.00
11198;BME280;5655;48.744;9.162;2022-11-04T10:05:50;95258.56;;;12.82;100.00
11198;BME280;5655;48.744;9.162;2022-11-04T10:16:30;95256.03;;;13.29;100.00
11198;BME280;5655;48.744;9.162;2022-11-04T10:22:44;95252.78;;;13.41;100.00
11198;BME280;5655;48.744;9.162;2022-11-04T10:24:56;95249.38;;;13.37;100.00
11198;BME280;5655;48.744;9.162;2022-11-04T10:27:29;95249.47;;;13.30;100.00
11198;BME280;5655;48.744;9.162;2022-11-04T10:30:03;95247.16;;;13.55;100.00
11198;BME280;5655;48.744;9.162;2022-11-04T10:32:34;95245.56;;;13.84;100.00
11198;BME280;5655;48.744;9.162;2022-11-04T10:35:04;95250.88;;;13.38;100.00
11198;BME280;5655;48.744;9.162;2022-11-04T10:37:35;95244.78;;;13.60;100.00
11198;BME280;5655;48.744;9.162;2022-11-04T10:40:24;95250.78;;;13.91;100.00
11198;BME280;5655;48.744;9.162;2022-11-04T10:42:52;95241.44;;;13.53;100.00
11198;BME280;5655;48.744;9.162;2022-11-04T10:45:20;95242.84;;;13.61;100.00
11198;BME280;5655;48.744;9.162;2022-11-04T10:48:00;95240.72;;;13.95;100.00
11198;BME280;5655;48.744;9.162;2022-11-04T10:50:38;95238.41;;;13.74;100.00
11198;BME280;5655;48.744;9.162;2022-11-04T10:53:11;95235.66;;;13.78;100.00
11198;BME280;5655;48.744;9.162;2022-11-04T10:55:48;95238.09;;;13.69;100.00
11198;BME280;5655;48.744;9.162;2022-11-04T10:58:20;95234.50;;;13.55;100.00
11198;BME280;5655;48.744;9.162;2022-11-04T11:00:48;95229.28;;;13.91;100.00
11198;BME280;5655;48.744;9.162;2022-11-04T11:03:26;95232.78;;;13.65;100.00
11198;BME280;5655;48.744;9.162;2022-11-04T11:06:08;95228.16;;;13.19;100.00
11198;BME280;5655;48.744;9.162;2022-11-04T11:08:34;95230.81;;;13.69;100.00
11198;BME280;5655;48.744;9.162;2022-11-04T11:11:03;95221.00;;;13.36;100.00
11198;BME280;5655;48.744;9.162;2022-11-04T11:13:36;95226.19;;;13.46;100.00
11198;BME280;5655;48.744;9.162;2022-11-04T11:16:08;95227.97;;;13.99;100.00
11198;BME280;5655;48.744;9.162;2022-11-04T11:18:33;95222.75;;;13.69;100.00
11198;BME280;5655;48.744;9.162;2022-11-04T11:21:05;95229.41;;;13.84;100.00
11198;BME280;5655;48.744;9.162;2022-11-04T11:23:45;95225.66;;;13.78;100.00
11198;BME280;5655;48.744;9.162;2022-11-04T11:26:16;95221.88;;;13.76;100.00
11198;BME280;5655;48.744;9.162;2022-11-04T11:28:48;95226.16;;;13.50;100.00
11198;BME280;5655;48.744;9.162;2022-11-04T11:31:15;95222.28;;;13.74;100.00
11198;BME280;5655;48.744;9.162;2022-11-04T11:33:59;95217.13;;;13.60;100.00
11198;BME280;5655;48.744;9.162;2022-11-04T11:36:30;95214.16;;;13.31;100.00
11198;BME280;5655;48.744;9.162;2022-11-04T11:39:18;95212.31;;;13.94;100.00
11198;BME280;5655;48.744;9.162;2022-11-04T11:42:00;95203.91;;;13.92;100.00
11198;BME280;5655;48.744;9.162;2022-11-04T11:47:04;95203.84;;;13.96;100.00
11198;BME280;5655;48.744;9.162;2022-11-04T11:49:32;95199.81;;;13.84;100.00
11198;BME280;5655;48.744;9.162;2022-11-04T11:55:24;95200.09;;;13.90;100.00
11198;BME280;5655;48.744;9.162;2022-11-04T11:58:31;95200.59;;;14.24;100.00
11198;BME280;5655;48.744;9.162;2022-11-04T12:01:10;95209.88;;;14.23;100.00
11198;BME280;5655;48.744;9.162;2022-11-04T12:03:43;95203.28;;;14.24;100.00
11198;BME280;5655;48.744;9.162;2022-11-04T12:08:59;95191.38;;;14.05;100.00
11198;BME280;5655;48.744;9.162;2022-11-04T12:14:02;95201.50;;;14.18;100.00
11198;BME280;5655;48.744;9.162;2022-11-04T12:16:41;95200.81;;;14.14;100.00
11198;BME280;5655;48.744;9.162;2022-11-04T12:21:56;95209.72;;;14.50;100.00
11198;BME280;5655;48.744;9.162;2022-11-04T12:24:36;95196.47;;;14.59;100.00
11198;BME280;5655;48.744;9.162;2022-11-04T12:27:27;95207.94;;;14.24;100.00
11198;BME280;5655;48.744;9.162;2022-11-04T12:30:10;95205.97;;;14.04;100.00
11198;BME280;5655;48.744;9.162;2022-11-04T12:35:33;95204.47;;;14.23;100.00
11198;BME280;5655;48.744;9.162;2022-11-04T12:41:37;95211.16;;;14.35;100.00
11198;BME280;5655;48.744;9.162;2022-11-04T12:44:35;95214.44;;;14.46;100.00
11198;BME280;5655;48.744;9.162;2022-11-04T12:50:12;95214.66;;;14.35;100.00
11198;BME280;5655;48.744;9.162;2022-11-04T12:53:14;95211.13;;;14.58;100.00
11198;BME280;5655;48.744;9.162;2022-11-04T12:56:19;95210.16;;;14.48;100.00
11198;BME280;5655;48.744;9.162;2022-11-04T12:58:52;95215.34;;;13.96;100.00
11198;BME280;5655;48.744;9.162;2022-11-04T13:01:40;95223.53;;;14.52;100.00
11198;BME280;5655;48.744;9.162;2022-11-04T13:04:16;95223.00;;;14.61;100.00
11198;BME280;5655;48.744;9.162;2022-11-04T13:06:48;95229.78;;;14.49;100.00
11198;BME280;5655;48.744;9.162;2022-11-04T13:09:25;95227.41;;;14.51;100.00
11198;BME280;5655;48.744;9.162;2022-11-04T13:11:57;95221.00;;;14.45;100.00
11198;BME280;5655;48.744;9.162;2022-11-04T13:15:22;95228.84;;;14.56;100.00
11198;BME280;5655;48.744;9.162;2022-11-04T13:17:26;95232.94;;;14.44;100.00
11198;BME280;5655;48.744;9.162;2022-11-04T13:20:00;95233.34;;;14.62;100.00
11198;BME280;5655;48.744;9.162;2022-11-04T13:22:33;95233.19;;;14.69;100.00
11198;BME280;5655;48.744;9.162;2022-11-04T13:25:03;95236.66;;;14.70;100.00
11198;BME280;5655;48.744;9.162;2022-11-04T13:27:34;95222.19;;;14.80;100.00
11198;BME280;5655;48.744;9.162;2022-11-04T13:30:42;95234.16;;;14.59;100.00
11198;BME280;5655;48.744;9.162;2022-11-04T13:38:44;95241.81;;;14.80;100.00
11198;BME280;5655;48.744;9.162;2022-11-04T13:44:18;95247.50;;;14.66;100.00
11198;BME280;5655;48.744;9.162;2022-11-04T13:46:51;95248.56;;;13.40;100.00
11198;BME280;5655;48.744;9.162;2022-11-04T13:49:28;95247.25;;;12.67;100.00
11198;BME280;5655;48.744;9.162;2022-11-04T13:52:11;95238.03;;;12.01;100.00
11198;BME280;5655;48.744;9.162;2022-11-04T13:55:19;95236.50;;;12.03;100.00
11198;BME280;5655;48.744;9.162;2022-11-04T13:57:32;95231.38;;;11.75;100.00
11198;BME280;5655;48.744;9.162;2022-11-04T14:02:45;95232.19;;;11.20;100.00
11198;BME280;5655;48.744;9.162;2022-11-04T14:10:56;95237.63;;;11.58;100.00
11198;BME280;5655;48.744;9.162;2022-11-04T14:18:50;95243.00;;;11.58;100.00
11198;BME280;5655;48.744;9.162;2022-11-04T14:21:26;95250.06;;;11.37;100.00
11198;BME280;5655;48.744;9.162;2022-11-04T14:23:57;95242.69;;;11.49;100.00
11198;BME280;5655;48.744;9.162;2022-11-04T14:26:28;95255.19;;;11.14;100.00
11198;BME280;5655;48.744;9.162;2022-11-04T14:29:11;95245.63;;;11.13;100.00
11198;BME280;5655;48.744;9.162;2022-11-04T14:31:42;95244.03;;;11.23;100.00
11198;BME280;5655;48.744;9.162;2022-11-04T14:34:24;95249.16;;;11.55;100.00
11198;BME280;5655;48.744;9.162;2022-11-04T14:36:58;95260.91;;;11.68;100.00
11198;BME280;5655;48.744;9.162;2022-11-04T14:39:33;95255.97;;;11.63;100.00
11198;BME280;5655;48.744;9.162;2022-11-04T14:42:02;95271.41;;;11.52;100.00
11198;BME280;5655;48.744;9.162;2022-11-04T14:47:23;95276.13;;;11.33;100.00